Portada
METAR-TAF:

METAR-TAF

Aeroports :

Dakar, Senegal

latitud: 14-44N, longitud: 017-30W, altitud: 27 m

Observació

L'informe es va fer fa 54 minuts, a les 00:00 UTC
Vent 10 kt del Nord
Temperatura 18°C
Humitat 83%
Pressió 1015 hPa
Visibilitat: 6000 m

METAR: GOOY 200000Z 36010KT 6000 NSC 18/15 Q1015

Hora: 00:54 (00:54 UTC)

Pronòstic

L'informe es va fer fa 1 hora i 24 minuts, a les 23:30 UTC
Pronòstic vàlid del 20 a les 00 UTC al 21 a les 06 UTC
Vent 14 kt del Nord
Visibilitat: 7000 m

TAF: GOOY 192330Z 2000/2106 01014KT 7000 NSC

Observacions i pronòstics meteorològics de més de 4000 aeroports (METAR i TAF).

Les estacions disponibles són els punts grocs i vermells al mapa.

Posi el ratolí al punt desitjat per veure el nom de l'estació.

Feu clic per veure les observacions i els pronòstics meteorològics.

Per canviar el mapa: feu clic els botons verds amb una creu de color negre per apropar; al botó verd amb un guió per allunyar la imatge; o en les fletxes verdes per a mapes adjacents.


METAR-TAF: